Time;durP1;ratioP1;P1;durP2;ratioP2;P2;SDS_P1;SDS_P2;PMS_P1;PMS_P2;Temp;Humidity;BMP_temperature;BMP_pressure;BME280_temperature;BME280_humidity;BME280_pressure;Samples;Min_cycle;Max_cycle;Signal;HPM_P1;HPM_P2
2020/12/23 00:02:10;;;;;;;34.47;28.48;;;;;;;10.23;74.07;101421.88;4952269;28;98180;-72
2020/12/23 00:04:37;;;;;;;32.70;27.80;;;;;;;10.16;74.01;101423.78;4960681;28;99591;-71
2020/12/23 00:07:06;;;;;;;36.95;29.23;;;;;;;10.14;74.21;101422.13;4965906;28;97564;-71
2020/12/23 00:09:32;;;;;;;37.97;29.70;;;;;;;10.21;73.81;101426.25;4963086;28;98639;-71
2020/12/23 00:11:59;;;;;;;37.88;28.40;;;;;;;10.23;73.97;101416.66;4962307;28;100736;-71
2020/12/23 00:14:25;;;;;;;36.38;27.98;;;;;;;10.25;73.70;101422.72;4963323;28;97158;-72
2020/12/23 00:16:51;;;;;;;38.92;28.67;;;;;;;10.28;73.38;101425.22;4959122;28;97939;-69
2020/12/23 00:19:18;;;;;;;32.42;27.67;;;;;;;10.29;73.60;101421.72;4960151;28;99525;-70
2020/12/23 00:21:44;;;;;;;33.42;27.67;;;;;;;10.40;73.36;101419.63;4959991;28;97300;-70
2020/12/23 00:24:11;;;;;;;39.10;30.15;;;;;;;10.45;73.29;101425.56;4958629;28;99557;-70
2020/12/23 00:26:38;;;;;;;39.67;30.98;;;;;;;10.39;73.19;101422.31;4965066;28;99684;-70
2020/12/23 00:29:04;;;;;;;36.72;29.40;;;;;;;10.37;73.82;101424.94;4962010;28;98533;-69
2020/12/23 00:31:30;;;;;;;38.45;30.33;;;;;;;10.45;73.49;101416.91;4960365;28;98521;-69
2020/12/23 00:33:57;;;;;;;41.17;32.72;;;;;;;10.38;73.70;101418.81;4961832;28;97936;-70
2020/12/23 00:36:23;;;;;;;39.70;30.33;;;;;;;10.31;74.53;101419.06;4963487;28;98181;-72
2020/12/23 00:38:49;;;;;;;37.38;28.92;;;;;;;10.43;73.99;101414.31;4963789;28;98845;-71
2020/12/23 00:41:17;;;;;;;35.35;30.58;;;;;;;10.49;73.79;101416.75;4962648;28;98560;-71
2020/12/23 00:43:43;;;;;;;36.20;30.50;;;;;;;10.38;73.96;101416.22;4963637;28;96959;-71
2020/12/23 00:46:11;;;;;;;36.42;31.55;;;;;;;10.33;74.59;101419.84;4960957;28;99338;-71
2020/12/23 00:48:38;;;;;;;37.33;29.67;;;;;;;10.35;74.49;101421.53;4964924;28;98966;-71
2020/12/23 00:51:15;;;;;;;38.33;30.85;;;;;;;10.36;74.46;101406.75;4961560;28;98807;-71
2020/12/23 00:53:42;;;;;;;37.45;29.08;;;;;;;10.33;74.36;101412.03;4961361;28;97146;-71
2020/12/23 00:56:11;;;;;;;34.88;28.73;;;;;;;10.45;73.98;101409.94;4950826;28;97320;-71
2020/12/23 00:58:37;;;;;;;34.20;29.73;;;;;;;10.34;74.07;101421.59;4950814;28;98679;-69
2020/12/23 01:01:04;;;;;;;34.60;29.65;;;;;;;10.27;74.15;101423.50;4964369;28;98626;-70
2020/12/23 01:03:42;;;;;;;38.75;30.13;;;;;;;10.27;74.11;101420.03;4963528;28;100815;-70
2020/12/23 01:06:09;;;;;;;42.90;32.45;;;;;;;10.36;73.58;101423.22;4963459;28;97320;-70
2020/12/23 01:08:35;;;;;;;39.97;32.03;;;;;;;10.20;74.15;101416.75;4963144;28;100779;-70
2020/12/23 01:11:05;;;;;;;42.42;32.63;;;;;;;10.07;74.53;101421.47;4960658;28;98706;-70
2020/12/23 01:13:32;;;;;;;37.08;31.45;;;;;;;10.04;74.50;101421.56;4958539;28;97820;-70
2020/12/23 01:15:59;;;;;;;38.63;29.98;;;;;;;10.11;74.06;101423.06;4963631;28;97764;-70
2020/12/23 01:18:25;;;;;;;35.72;29.80;;;;;;;10.05;74.33;101428.47;4959161;28;99089;-70
2020/12/23 01:20:52;;;;;;;39.40;29.73;;;;;;;10.14;73.78;101427.34;4961551;28;98916;-70
2020/12/23 01:23:18;;;;;;;39.10;29.25;;;;;;;10.06;73.59;101429.31;4963736;28;97787;-70
2020/12/23 01:25:45;;;;;;;39.50;31.08;;;;;;;9.98;74.04;101426.94;4962138;28;97202;-71
2020/12/23 01:28:11;;;;;;;41.75;32.38;;;;;;;9.92;74.32;101420.16;4945255;28;98622;-71
2020/12/23 01:30:38;;;;;;;37.65;28.85;;;;;;;9.89;74.48;101424.59;4962895;28;98580;-72
2020/12/23 01:33:04;;;;;;;40.80;29.98;;;;;;;9.86;74.41;101422.09;4960869;28;97169;-72
2020/12/23 01:35:31;;;;;;;38.67;31.98;;;;;;;10.02;73.90;101420.75;4958948;28;97415;-73
2020/12/23 01:37:57;;;;;;;41.30;29.55;;;;;;;10.04;73.37;101418.94;4962685;28;98551;-73
2020/12/23 01:40:23;;;;;;;40.42;30.77;;;;;;;9.95;73.58;101421.81;4960116;28;98580;-73
2020/12/23 01:42:50;;;;;;;37.10;28.33;;;;;;;9.93;73.91;101421.84;4947328;28;97030;-72
2020/12/23 01:45:16;;;;;;;39.63;30.00;;;;;;;10.03;73.10;101419.00;4946068;28;99417;-71
2020/12/23 01:47:45;;;;;;;38.58;29.98;;;;;;;9.98;72.82;101424.34;4958074;28;98763;-71
2020/12/23 01:50:13;;;;;;;41.20;30.50;;;;;;;9.96;72.87;101420.94;4963272;28;98400;-71
2020/12/23 01:52:39;;;;;;;37.30;29.25;;;;;;;9.95;72.79;101421.81;4960142;28;97042;-72
2020/12/23 01:55:09;;;;;;;41.15;28.33;;;;;;;9.97;72.61;101423.50;4958385;28;97411;-72
2020/12/23 01:57:35;;;;;;;37.58;27.23;;;;;;;10.00;72.53;101425.13;4957223;28;98671;-70
2020/12/23 02:00:05;;;;;;;39.10;31.08;;;;;;;9.91;72.71;101415.84;4947451;28;98683;-71
2020/12/23 02:02:40;;;;;;;32.35;28.17;;;;;;;9.93;72.57;101415.81;4950978;28;97541;-72
2020/12/23 02:05:08;;;;;;;38.70;28.88;;;;;;;9.88;72.32;101410.72;4917372;28;96642;-72
2020/12/23 02:07:34;;;;;;;34.08;28.33;;;;;;;9.66;73.18;101404.41;4952095;28;97372;-71
2020/12/23 02:10:05;;;;;;;32.33;25.60;;;;;;;9.75;72.63;101403.28;4961592;28;98526;-72
2020/12/23 02:12:31;;;;;;;36.22;28.83;;;;;;;9.78;72.06;101400.59;4946436;28;96932;-72
2020/12/23 02:15:12;;;;;;;33.28;25.42;;;;;;;9.80;72.17;101391.88;4945793;28;99759;-72
2020/12/23 02:17:39;;;;;;;38.38;26.08;;;;;;;9.70;72.09;101396.47;4955137;28;98478;-72
2020/12/23 02:20:07;;;;;;;30.67;22.90;;;;;;;9.63;72.44;101391.47;4957802;28;99472;-72
2020/12/23 02:22:33;;;;;;;33.45;25.10;;;;;;;9.56;72.82;101392.53;4963323;28;97257;-72
2020/12/23 02:25:00;;;;;;;27.50;22.70;;;;;;;9.60;72.42;101388.97;4959462;28;98410;-72
2020/12/23 02:27:27;;;;;;;30.02;23.83;;;;;;;9.60;72.12;101389.81;4955924;28;98066;-72
2020/12/23 02:29:55;;;;;;;29.80;23.90;;;;;;;9.58;72.35;101388.13;4962833;28;98466;-72
2020/12/23 02:32:22;;;;;;;28.35;23.90;;;;;;;9.62;71.54;101387.16;4956829;28;96897;-72
2020/12/23 02:34:48;;;;;;;29.10;22.40;;;;;;;9.48;72.11;101384.06;4960561;28;101603;-71
2020/12/23 02:37:14;;;;;;;28.65;23.10;;;;;;;9.39;73.02;101387.81;4960512;28;100652;-72
2020/12/23 02:39:44;;;;;;;32.05;24.95;;;;;;;9.44;72.61;101381.56;4958928;28;98649;-72
2020/12/23 02:42:10;;;;;;;33.65;25.63;;;;;;;9.55;71.68;101376.06;4960856;28;97753;-71
2020/12/23 02:44:37;;;;;;;36.90;25.20;;;;;;;9.58;71.45;101385.53;4960126;28;96716;-71
2020/12/23 02:47:10;;;;;;;32.30;25.33;;;;;;;9.56;71.44;101387.34;4956374;28;98460;-72
2020/12/23 02:49:37;;;;;;;;;;;;;;;9.58;70.98;101380.31;4962015;28;98484;-71
2020/12/23 02:52:04;;;;;;;35.38;26.48;;;;;;;9.56;71.28;101382.13;4959833;28;96950;-71
2020/12/23 02:54:31;;;;;;;35.92;25.08;;;;;;;9.58;70.89;101385.53;4960579;28;97964;-71
2020/12/23 02:56:57;;;;;;;37.85;28.55;;;;;;;9.45;71.52;101385.88;4956730;28;98722;-72
2020/12/23 02:59:24;;;;;;;39.55;27.50;;;;;;;9.33;72.41;101381.00;4957114;28;98434;-71
2020/12/23 03:01:50;;;;;;;36.78;28.25;;;;;;;9.29;72.24;101383.72;4957924;28;100202;-72
2020/12/23 03:04:16;;;;;;;37.33;28.83;;;;;;;8.98;73.38;101384.53;4957709;28;96773;-72
2020/12/23 03:06:43;;;;;;;33.13;26.88;;;;;;;9.08;73.43;101380.78;4961654;28;98488;-72
2020/12/23 03:09:10;;;;;;;30.45;24.88;;;;;;;9.19;72.98;101383.13;4959542;28;99126;-72
2020/12/23 03:11:37;;;;;;;32.67;26.15;;;;;;;9.15;72.93;101376.28;4960791;28;97214;-71
2020/12/23 03:14:04;;;;;;;35.60;25.23;;;;;;;9.21;72.91;101381.31;4959451;28;100361;-71
2020/12/23 03:16:30;;;;;;;39.33;24.77;;;;;;;9.23;72.72;101378.69;4957891;28;98611;-71
2020/12/23 03:18:56;;;;;;;32.90;24.27;;;;;;;9.17;73.24;101385.75;4957532;28;100502;-71
2020/12/23 03:21:23;;;;;;;33.75;25.17;;;;;;;9.24;73.12;101378.66;4961490;28;96870;-71
2020/12/23 03:23:49;;;;;;;34.75;27.55;;;;;;;9.36;72.57;101377.47;4960592;28;97115;-71
2020/12/23 03:26:15;;;;;;;30.52;24.50;;;;;;;9.34;72.30;101377.50;4959803;28;98561;-71
2020/12/23 03:28:42;;;;;;;29.50;23.48;;;;;;;9.30;72.93;101369.81;4957947;28;98736;-70
2020/12/23 03:31:08;;;;;;;33.10;24.48;;;;;;;9.37;72.41;101373.97;4956232;28;96741;-71
2020/12/23 03:33:35;;;;;;;32.30;23.45;;;;;;;9.17;73.75;101369.31;4957822;28;98924;-70
2020/12/23 03:36:01;;;;;;;32.85;25.55;;;;;;;9.26;73.31;101368.19;4959027;28;98595;-71
2020/12/23 03:38:28;;;;;;;35.72;25.40;;;;;;;9.32;73.42;101368.91;4962955;28;98564;-71
2020/12/23 03:40:54;;;;;;;28.42;22.55;;;;;;;9.30;73.42;101370.66;4960012;28;97418;-70
2020/12/23 03:43:21;;;;;;;31.10;23.13;;;;;;;9.26;73.27;101368.19;4964051;28;97641;-70
2020/12/23 03:45:48;;;;;;;26.83;23.80;;;;;;;9.33;72.97;101370.59;4962604;28;97873;-70
2020/12/23 03:48:14;;;;;;;33.05;24.20;;;;;;;9.29;73.48;101371.56;4963024;28;99078;-70
2020/12/23 03:50:41;;;;;;;29.00;20.85;;;;;;;9.39;73.20;101372.19;4961856;28;97259;-71
2020/12/23 03:53:07;;;;;;;29.50;23.27;;;;;;;9.33;73.46;101380.16;4965053;28;96969;-70
2020/12/23 03:55:34;;;;;;;28.52;21.42;;;;;;;9.33;73.83;101383.63;4964828;28;98576;-69
2020/12/23 03:58:00;;;;;;;28.42;22.58;;;;;;;9.27;74.23;101381.19;4963567;28;98606;-70
2020/12/23 04:00:27;;;;;;;29.42;23.95;;;;;;;9.33;74.47;101394.03;4961543;28;96835;-70
2020/12/23 04:02:53;;;;;;;31.95;22.92;;;;;;;9.39;74.16;101386.03;4947554;28;99889;-70
2020/12/23 04:05:34;;;;;;;31.25;22.80;;;;;;;9.33;74.53;101383.63;4959756;28;98714;-70
2020/12/23 04:08:00;;;;;;;27.38;21.63;;;;;;;9.36;74.25;101386.13;4960235;28;98796;-69
2020/12/23 04:10:26;;;;;;;28.95;23.30;;;;;;;9.48;74.19;101389.28;4963466;28;98439;-69
2020/12/23 04:12:53;;;;;;;28.80;23.77;;;;;;;9.47;73.99;101388.44;4962972;28;96756;-69
2020/12/23 04:15:19;;;;;;;29.05;23.10;;;;;;;9.53;73.95;101403.03;4957381;28;98567;-71
2020/12/23 04:17:46;;;;;;;27.10;21.13;;;;;;;9.49;74.09;101397.06;4959551;28;98681;-72
2020/12/23 04:20:12;;;;;;;29.10;22.00;;;;;;;9.53;74.36;101398.66;4961845;28;96806;-71
2020/12/23 04:22:39;;;;;;;30.02;23.52;;;;;;;9.52;74.22;101396.13;4957598;28;99543;-71
2020/12/23 04:25:06;;;;;;;29.75;21.52;;;;;;;9.54;74.71;101392.59;4946681;28;99088;-70
2020/12/23 04:27:36;;;;;;;26.98;23.60;;;;;;;9.48;74.71;101404.91;4958533;28;98684;-70
2020/12/23 04:30:05;;;;;;;32.55;23.30;;;;;;;9.31;74.68;101398.41;4962079;28;96766;-70
2020/12/23 04:32:32;;;;;;;27.77;22.92;;;;;;;9.27;75.30;101395.91;4961105;28;97413;-70
2020/12/23 04:35:01;;;;;;;28.30;22.13;;;;;;;9.26;74.95;101402.88;4962422;28;98962;-70
2020/12/23 04:37:29;;;;;;;30.17;21.77;;;;;;;9.05;75.16;101393.00;4949265;28;98612;-70
2020/12/23 04:39:55;;;;;;;35.80;23.60;;;;;;;8.99;75.10;101395.78;4960309;28;99357;-71
2020/12/23 04:42:22;;;;;;;26.05;21.65;;;;;;;8.95;75.86;101383.72;4959733;28;96659;-69
2020/12/23 04:44:49;;;;;;;27.40;22.35;;;;;;;9.11;75.15;101396.34;4957078;28;98477;-71
2020/12/23 04:47:16;;;;;;;26.13;22.70;;;;;;;9.24;74.67;101388.19;4960104;28;98480;-71
2020/12/23 04:49:45;;;;;;;25.95;20.42;;;;;;;9.46;73.77;101391.94;4943821;28;97895;-71
2020/12/23 04:52:11;;;;;;;24.45;20.35;;;;;;;9.50;73.91;101390.97;4957984;28;96761;-73
2020/12/23 04:54:38;;;;;;;28.48;21.70;;;;;;;9.42;74.13;101395.50;4962391;28;98606;-71
2020/12/23 04:57:05;;;;;;;26.60;22.05;;;;;;;9.45;74.00;101396.28;4971406;28;98372;-71
2020/12/23 04:59:31;;;;;;;25.50;21.58;;;;;;;9.34;74.36;101400.94;4965787;28;96684;-72
2020/12/23 05:01:58;;;;;;;30.90;21.95;;;;;;;9.40;74.36;101394.72;4971597;28;96748;-71
2020/12/23 05:04:25;;;;;;;27.23;21.95;;;;;;;9.28;75.16;101401.09;4963905;28;98443;-72
2020/12/23 05:07:00;;;;;;;25.40;20.77;;;;;;;9.31;75.23;101397.53;4963365;28;98626;-72
2020/12/23 05:09:26;;;;;;;28.63;23.88;;;;;;;9.52;74.05;101393.50;4961803;28;99554;-71
2020/12/23 05:11:54;;;;;;;29.25;23.17;;;;;;;9.42;74.34;101392.91;4961244;28;96766;-71
2020/12/23 05:14:20;;;;;;;31.67;22.13;;;;;;;9.45;74.74;101393.69;4948669;28;98683;-71
2020/12/23 05:16:47;;;;;;;26.80;21.30;;;;;;;9.49;74.16;101397.06;4953812;28;98577;-71
2020/12/23 05:19:16;;;;;;;33.05;22.95;;;;;;;9.54;74.31;101400.41;4954812;28;96591;-70
2020/12/23 05:21:43;;;;;;;27.15;22.10;;;;;;;9.50;74.16;101403.13;4965503;28;96692;-70
2020/12/23 05:24:10;;;;;;;32.30;25.77;;;;;;;9.52;73.97;101398.72;4959408;28;98664;-70
2020/12/23 05:26:44;;;;;;;32.15;23.40;;;;;;;9.44;74.75;101393.75;4956874;28;98472;-69
2020/12/23 05:29:14;;;;;;;31.65;22.52;;;;;;;9.54;74.22;101396.94;4965020;28;98724;-69
2020/12/23 05:31:43;;;;;;;28.58;23.88;;;;;;;9.62;73.64;101398.44;4972509;28;97595;-69
2020/12/23 05:34:09;;;;;;;25.38;20.70;;;;;;;9.57;73.73;101396.84;4969449;28;99879;-69
2020/12/23 05:36:38;;;;;;;26.92;20.23;;;;;;;9.51;73.54;101403.06;4965088;28;98507;-69
2020/12/23 05:39:06;;;;;;;27.08;20.25;;;;;;;9.55;73.52;101402.09;4967114;28;96603;-69
2020/12/23 05:41:32;;;;;;;22.90;20.15;;;;;;;9.51;73.43;101387.47;4968464;28;97367;-70
2020/12/23 05:43:59;;;;;;;28.20;20.80;;;;;;;9.45;73.37;101375.47;4948020;28;98561;-70
2020/12/23 05:46:25;;;;;;;24.60;19.48;;;;;;;9.56;72.64;101388.19;4958137;28;98733;-71
2020/12/23 05:48:52;;;;;;;24.15;18.45;;;;;;;9.59;72.29;101389.88;4957692;28;96543;-70
2020/12/23 05:51:18;;;;;;;27.73;19.45;;;;;;;9.58;72.53;101396.78;4937874;28;96912;-70
2020/12/23 05:53:45;;;;;;;24.45;19.42;;;;;;;9.59;72.29;101387.25;4954169;28;98668;-70
2020/12/23 05:56:11;;;;;;;23.58;18.13;;;;;;;9.59;71.94;101395.06;4953504;28;98654;-71
2020/12/23 05:58:38;;;;;;;24.60;18.42;;;;;;;9.53;72.15;101387.41;4953812;28;98242;-71
2020/12/23 06:01:06;;;;;;;25.13;18.15;;;;;;;9.58;71.68;101385.53;4967063;28;96757;-71
2020/12/23 06:03:54;;;;;;;28.05;19.48;;;;;;;9.42;72.19;101378.13;4968870;28;98530;-70
2020/12/23 06:06:25;;;;;;;27.63;20.88;;;;;;;9.44;72.47;101394.59;4970414;28;99191;-70
2020/12/23 06:08:56;;;;;;;28.65;21.95;;;;;;;9.49;72.16;101391.00;4971635;28;96713;-73
2020/12/23 06:11:29;;;;;;;24.45;21.00;;;;;;;9.37;72.54;101387.81;4970645;28;97262;-72
2020/12/23 06:14:14;;;;;;;27.30;20.27;;;;;;;9.37;72.75;101384.38;4970915;28;98631;-73
2020/12/23 06:16:53;;;;;;;25.73;21.23;;;;;;;9.29;72.55;101387.19;4948511;28;98569;-72
2020/12/23 06:19:19;;;;;;;26.35;20.40;;;;;;;9.22;73.04;101388.25;4952013;28;96697;-73
2020/12/23 06:21:46;;;;;;;30.73;21.92;;;;;;;9.23;72.91;101384.75;4946148;28;96905;-72
2020/12/23 06:24:15;;;;;;;33.53;23.45;;;;;;;9.16;73.34;101381.47;4950860;28;98590;-73
2020/12/23 06:26:43;;;;;;;29.38;23.42;;;;;;;9.33;72.88;101380.16;4951799;28;98540;-72
2020/12/23 06:29:11;;;;;;;25.77;20.20;;;;;;;9.25;72.89;101389.91;4947362;28;97069;-73
2020/12/23 06:32:11;;;;;;;30.15;22.17;;;;;;;9.23;72.67;101387.34;4949436;28;96687;-74
2020/12/23 06:34:39;;;;;;;31.23;22.75;;;;;;;9.14;73.24;101387.59;4905018;28;98677;-74
2020/12/23 06:37:20;;;;;;;31.63;22.73;;;;;;;9.26;72.87;101389.00;4949574;28;98849;-73
2020/12/23 06:39:47;;;;;;;33.25;23.13;;;;;;;9.09;73.13;101389.44;4945147;28;96745;-70
2020/12/23 06:42:14;;;;;;;28.33;22.35;;;;;;;9.02;73.56;101377.50;4947859;28;96753;-72
2020/12/23 06:44:43;;;;;;;29.42;22.55;;;;;;;9.02;73.73;101380.97;4946358;28;98497;-71
2020/12/23 06:47:10;;;;;;;30.45;24.95;;;;;;;9.01;73.75;101381.84;4945809;28;98843;-71
2020/12/23 06:49:43;;;;;;;32.50;24.88;;;;;;;8.98;74.32;101379.31;4949349;28;97005;-75
2020/12/23 06:52:31;;;;;;;36.53;27.05;;;;;;;8.93;74.05;101371.63;4950076;28;96596;-73
2020/12/23 06:55:11;;;;;;;39.70;26.30;;;;;;;8.89;74.83;101369.13;4941968;28;98546;-74
2020/12/23 06:57:37;;;;;;;38.90;28.98;;;;;;;8.81;74.59;101371.94;4946434;28;98479;-77
2020/12/23 07:00:07;;;;;;;39.35;29.75;;;;;;;8.88;74.58;101370.88;4950309;28;97266;-72
2020/12/23 07:02:48;;;;;;;42.50;27.55;;;;;;;8.76;75.51;101366.00;4949932;28;96689;-74
2020/12/23 07:05:30;;;;;;;42.38;29.35;;;;;;;8.93;74.13;101361.22;4950850;28;98666;-74
2020/12/23 07:08:20;;;;;;;42.63;29.08;;;;;;;8.92;74.29;101358.69;4933730;28;98432;-71
2020/12/23 07:10:48;;;;;;;43.50;30.13;;;;;;;8.99;73.61;101355.00;4945035;28;96617;-74
2020/12/23 07:13:19;;;;;;;39.10;27.17;;;;;;;9.02;73.93;101357.53;4950580;28;97868;-74
2020/12/23 07:15:54;;;;;;;42.85;29.40;;;;;;;9.03;73.72;101353.19;4962217;28;98494;-73
2020/12/23 07:18:28;;;;;;;34.10;27.42;;;;;;;9.03;74.35;101361.84;4969854;28;98497;-73
2020/12/23 07:20:57;;;;;;;33.33;26.70;;;;;;;9.17;73.91;101358.91;4970272;28;96926;-76
2020/12/23 07:23:26;;;;;;;39.30;28.08;;;;;;;9.17;73.47;101362.34;4969970;28;96641;-73
2020/12/23 07:25:53;;;;;;;34.03;25.52;;;;;;;9.30;73.65;101365.47;4966996;28;98567;-72
2020/12/23 07:28:33;;;;;;;31.98;23.33;;;;;;;9.35;73.18;101366.19;4969563;28;98610;-72
2020/12/23 07:31:00;;;;;;;32.35;24.20;;;;;;;9.53;72.61;101366.59;4955401;28;96614;-73
2020/12/23 07:33:30;;;;;;;36.25;23.70;;;;;;;9.60;72.58;101363.78;4965654;28;97140;-70
2020/12/23 07:35:57;;;;;;;30.15;23.52;;;;;;;9.80;72.25;101364.94;4967535;28;98492;-70
2020/12/23 07:38:28;;;;;;;32.17;24.20;;;;;;;9.90;72.16;101372.44;4969159;28;98387;-73
2020/12/23 07:40:55;;;;;;;37.67;23.58;;;;;;;10.05;71.88;101385.94;4970105;28;96775;-70
2020/12/23 07:43:21;;;;;;;34.33;22.42;;;;;;;10.10;70.90;101379.69;4970646;28;97779;-69
2020/12/23 07:45:48;;;;;;;29.58;22.08;;;;;;;10.23;70.93;101385.41;4950894;28;98598;-71
2020/12/23 07:48:18;;;;;;;37.72;23.40;;;;;;;10.35;70.98;101377.22;4969322;28;98598;-69
2020/12/23 07:50:47;;;;;;;31.58;20.85;;;;;;;10.48;70.50;101375.06;4969595;28;97760;-71
2020/12/23 07:53:14;;;;;;;29.13;22.58;;;;;;;10.60;69.78;101379.91;4969893;28;96682;-69
2020/12/23 07:55:42;;;;;;;30.42;22.40;;;;;;;10.78;69.56;101377.59;4968712;28;98659;-72
2020/12/23 07:58:08;;;;;;;32.28;22.85;;;;;;;10.81;69.21;101387.94;4965312;28;98474;-71
2020/12/23 08:00:39;;;;;;;33.08;22.45;;;;;;;11.01;68.79;101394.19;4966939;28;96962;-70
2020/12/23 08:03:06;;;;;;;33.33;22.50;;;;;;;11.08;68.37;101391.38;4954312;28;96732;-71
2020/12/23 08:05:33;;;;;;;31.63;23.80;;;;;;;10.91;68.76;101384.13;4956386;28;100539;-70
2020/12/23 08:08:24;;;;;;;36.45;27.13;;;;;;;11.00;68.66;101394.25;4962436;28;98472;-70
2020/12/23 08:10:51;;;;;;;38.45;27.85;;;;;;;11.13;68.38;101398.16;4957982;28;97527;-72
2020/12/23 08:13:26;;;;;;;37.03;28.58;;;;;;;11.15;68.37;101403.31;4955080;28;99463;-71
2020/12/23 08:16:17;;;;;;;35.42;26.65;;;;;;;11.17;68.54;101401.50;4954229;28;98819;-70
2020/12/23 08:18:44;;;;;;;38.00;28.52;;;;;;;11.23;68.31;101417.81;4956576;28;98722;-72
2020/12/23 08:21:11;;;;;;;33.35;26.63;;;;;;;11.30;68.57;101407.19;4956661;28;100711;-71
2020/12/23 08:23:37;;;;;;;41.10;28.77;;;;;;;11.52;68.29;101405.50;4961114;28;99767;-69
2020/12/23 08:26:04;;;;;;;36.88;28.35;;;;;;;11.70;67.77;101407.47;4958140;28;99686;-72
2020/12/23 08:28:33;;;;;;;42.67;30.38;;;;;;;11.82;67.70;101408.78;4960781;28;98825;-72
2020/12/23 08:31:00;;;;;;;37.85;30.23;;;;;;;11.80;67.73;101413.19;4960944;28;97152;-72
2020/12/23 08:33:26;;;;;;;41.67;32.22;;;;;;;11.83;67.98;101417.50;4985974;28;96924;-72
2020/12/23 08:36:03;;;;;;;39.28;31.25;;;;;;;11.69;68.65;101410.97;4961690;28;99456;-71
2020/12/23 08:38:36;;;;;;;42.90;34.58;;;;;;;11.60;68.90;101403.47;4956643;28;99074;-72
2020/12/23 08:41:02;;;;;;;46.72;32.30;;;;;;;11.64;69.06;101407.69;4955904;28;98292;-72
2020/12/23 08:43:29;;;;;;;40.67;32.58;;;;;;;11.62;69.37;101412.13;4964088;28;96942;-71
2020/12/23 08:45:59;;;;;;;47.88;35.05;;;;;;;11.59;69.47;101417.44;4961419;28;98580;-71
2020/12/23 08:48:27;;;;;;;45.92;33.47;;;;;;;11.57;69.75;101421.03;4962158;28;98757;-72
2020/12/23 08:50:57;;;;;;;39.97;32.53;;;;;;;11.45;70.06;101423.16;4959556;28;97419;-71
2020/12/23 08:53:31;;;;;;;41.75;32.53;;;;;;;11.46;70.06;101427.47;4964860;28;98835;-70
2020/12/23 08:55:58;;;;;;;39.47;29.92;;;;;;;11.38;70.24;101432.09;4963477;28;98877;-68
2020/12/23 08:58:24;;;;;;;35.42;28.08;;;;;;;11.43;70.20;101434.56;4956697;28;98596;-69
2020/12/23 09:01:00;;;;;;;36.17;29.67;;;;;;;11.44;70.34;101431.03;4948094;28;96844;-70
2020/12/23 09:03:30;;;;;;;42.25;31.92;;;;;;;11.47;70.19;101444.84;4959573;28;97075;-70
2020/12/23 09:05:56;;;;;;;46.00;33.17;;;;;;;11.41;70.25;101441.59;4959712;28;98638;-69
2020/12/23 09:08:24;;;;;;;39.90;32.28;;;;;;;11.38;70.51;101447.75;4958395;28;98412;-67
2020/12/23 09:10:54;;;;;;;41.08;25.83;;;;;;;11.41;70.18;101442.44;4963577;28;97639;-70
2020/12/23 09:13:31;;;;;;;28.27;21.77;;;;;;;11.41;69.88;101452.88;4958020;28;98941;-70
2020/12/23 09:15:58;;;;;;;26.48;20.20;;;;;;;11.38;69.75;101454.75;4963085;28;98701;-69
2020/12/23 09:18:24;;;;;;;21.27;17.83;;;;;;;11.40;69.62;101452.91;4959597;28;98579;-69
2020/12/23 09:20:58;;;;;;;25.52;17.77;;;;;;;11.38;69.67;101447.75;4966109;28;97247;-71
2020/12/23 09:23:24;;;;;;;31.17;19.17;;;;;;;11.37;69.72;101456.50;4961679;28;96634;-70
2020/12/23 09:25:51;;;;;;;24.95;18.15;;;;;;;11.38;69.83;101452.13;4959784;28;98915;-70
2020/12/23 09:28:17;;;;;;;21.48;17.50;;;;;;;11.46;69.49;101458.81;4960485;28;98869;-71
2020/12/23 09:30:47;;;;;;;21.80;16.55;;;;;;;11.45;69.70;101451.00;4962637;28;97848;-70
2020/12/23 09:33:21;;;;;;;21.70;18.67;;;;;;;11.45;69.75;101451.88;4956218;28;96976;-72
2020/12/23 09:35:49;;;;;;;23.17;18.80;;;;;;;11.52;69.74;101452.53;4946930;28;98528;-71
2020/12/23 09:38:34;;;;;;;23.77;19.27;;;;;;;11.55;69.65;101449.78;4960304;28;99141;-72
2020/12/23 09:41:00;;;;;;;;;;;;;;;11.60;69.46;101439.19;4963411;28;96806;-71
2020/12/23 09:43:28;;;;;;;22.83;19.52;;;;;;;11.59;69.38;101440.09;4959051;28;97700;-70
2020/12/23 09:46:00;;;;;;;26.02;17.90;;;;;;;11.66;69.49;101442.41;4958308;28;98862;-70
2020/12/23 09:48:27;;;;;;;26.77;17.65;;;;;;;11.69;68.75;101431.03;4962824;28;98452;-71
2020/12/23 09:50:53;;;;;;;22.52;19.05;;;;;;;11.72;68.83;101430.94;4959043;28;97103;-71
2020/12/23 09:53:23;;;;;;;25.33;19.48;;;;;;;11.80;68.76;101423.66;4952194;28;97263;-73
2020/12/23 09:55:49;;;;;;;27.58;19.00;;;;;;;11.89;68.31;101428.59;4965368;28;98363;-74
2020/12/23 09:58:16;;;;;;;24.42;18.25;;;;;;;11.87;68.28;101425.16;4960458;28;98576;-70
2020/12/23 10:00:43;;;;;;;25.95;18.65;;;;;;;11.77;68.60;101423.75;4964082;28;97078;-71
2020/12/23 10:03:09;;;;;;;25.67;21.17;;;;;;;11.75;68.48;101421.19;4940872;28;97193;-70
2020/12/23 10:05:36;;;;;;;26.25;19.63;;;;;;;11.81;68.45;101417.50;4961605;28;98547;-72
2020/12/23 10:08:03;;;;;;;27.60;19.58;;;;;;;11.83;68.42;101418.38;4966584;28;98433;-71
2020/12/23 10:10:30;;;;;;;28.10;21.42;;;;;;;11.84;68.50;101420.06;4968730;28;96684;-69
2020/12/23 10:12:56;;;;;;;29.63;21.45;;;;;;;11.90;68.44;101409.38;4963870;28;96871;-68
2020/12/23 10:15:23;;;;;;;27.55;21.17;;;;;;;11.95;68.22;101402.22;4962810;28;98583;-70
2020/12/23 10:17:49;;;;;;;27.50;21.65;;;;;;;11.95;68.08;101399.59;4961953;28;99033;-70
2020/12/23 10:20:15;;;;;;;28.17;20.25;;;;;;;12.01;68.03;101401.13;4956761;28;97345;-68
2020/12/23 10:22:42;;;;;;;32.20;23.77;;;;;;;12.00;68.04;101400.28;4964097;28;96627;-69
2020/12/23 10:25:08;;;;;;;29.80;24.08;;;;;;;11.95;68.31;101397.00;4961243;28;98659;-68
2020/12/23 10:27:35;;;;;;;31.25;21.92;;;;;;;11.94;68.71;101389.22;4959597;28;98632;-70
2020/12/23 10:30:03;;;;;;;34.55;23.70;;;;;;;11.77;69.16;101387.19;4959860;28;99277;-71
2020/12/23 10:32:30;;;;;;;35.70;25.50;;;;;;;11.94;68.56;101387.47;4971041;28;97465;-70
2020/12/23 10:34:56;;;;;;;29.58;22.38;;;;;;;11.88;68.90;101389.44;4965205;28;98628;-71
2020/12/23 10:37:23;;;;;;;38.80;25.48;;;;;;;11.75;69.08;101387.25;4968362;28;98637;-69
2020/12/23 10:39:55;;;;;;;38.63;26.95;;;;;;;11.82;69.54;101379.22;4967764;28;96652;-70
2020/12/23 10:42:21;;;;;;;32.13;24.58;;;;;;;11.98;69.08;101386.41;4961694;28;96799;-71
2020/12/23 10:44:48;;;;;;;30.58;22.55;;;;;;;11.93;68.98;101385.75;4956852;28;99581;-69
2020/12/23 10:47:28;;;;;;;34.28;24.77;;;;;;;11.99;68.66;101382.06;4958846;28;98420;-67
2020/12/23 10:49:54;;;;;;;31.75;25.23;;;;;;;12.12;68.74;101380.69;4960955;28;98446;-70
2020/12/23 10:52:20;;;;;;;32.85;27.10;;;;;;;12.11;68.64;101373.75;4958776;28;97926;-71
2020/12/23 10:54:48;;;;;;;32.70;25.33;;;;;;;12.14;68.61;101371.00;4957730;28;98626;-69
2020/12/23 10:57:14;;;;;;;39.13;27.63;;;;;;;12.01;68.91;101369.78;4963281;28;98718;-72
2020/12/23 10:59:41;;;;;;;35.55;28.40;;;;;;;12.03;69.03;101374.03;4970087;28;96640;-70
2020/12/23 11:02:07;;;;;;;35.63;27.13;;;;;;;12.05;68.58;101372.22;4965930;28;98004;-67
2020/12/23 11:04:33;;;;;;;34.83;25.58;;;;;;;12.17;68.49;101360.44;4961472;28;98541;-66
2020/12/23 11:07:00;;;;;;;30.85;24.33;;;;;;;12.17;68.64;101357.81;4958639;28;99544;-69
2020/12/23 11:09:26;;;;;;;34.63;25.42;;;;;;;12.24;68.69;101366.28;4964539;28;97564;-68
2020/12/23 11:11:53;;;;;;;37.10;26.77;;;;;;;12.22;68.69;101363.72;4956972;28;97645;-67
2020/12/23 11:14:19;;;;;;;39.88;31.25;;;;;;;12.07;69.15;101353.84;4955993;28;99747;-70
2020/12/23 11:16:49;;;;;;;42.42;29.23;;;;;;;12.15;69.51;101357.03;4944692;28;98647;-70
2020/12/23 11:19:15;;;;;;;36.47;27.92;;;;;;;12.17;69.31;101347.38;4959636;28;97251;-69
2020/12/23 11:21:42;;;;;;;35.35;26.58;;;;;;;12.21;69.32;101348.97;4959400;28;97451;-70